createdAt,value
2022-09-25T00:00:34.433Z,23.00
2022-09-25T00:03:20.503Z,25.20
2022-09-25T00:06:13.385Z,23.20
2022-09-25T00:09:00.266Z,26.27
2022-09-25T00:11:46.704Z,27.93
2022-09-25T00:14:32.575Z,26.80
2022-09-25T00:17:18.770Z,29.17
2022-09-25T00:20:04.734Z,28.33
2022-09-25T00:22:51.382Z,28.37
2022-09-25T00:25:37.464Z,28.10
2022-09-25T00:28:23.181Z,31.87
2022-09-25T00:31:12.768Z,32.83
2022-09-25T00:34:00.170Z,36.20
2022-09-25T00:36:46.218Z,29.77
2022-09-25T00:39:33.063Z,30.30
2022-09-25T00:42:20.878Z,31.17
2022-09-25T00:45:07.473Z,38.67
2022-09-25T00:48:01.624Z,29.67
2022-09-25T00:50:53.117Z,29.27
2022-09-25T00:53:41.032Z,28.83
2022-09-25T00:56:28.948Z,30.57
2022-09-25T00:59:17.675Z,32.17
2022-09-25T01:02:03.390Z,25.50
2022-09-25T01:04:49.812Z,30.40
2022-09-25T01:07:38.016Z,27.90
2022-09-25T01:10:24.772Z,28.50
2022-09-25T01:13:12.260Z,26.83
2022-09-25T01:16:09.281Z,22.43
2022-09-25T01:19:13.830Z,24.10
2022-09-25T01:22:19.327Z,24.13
2022-09-25T01:25:25.881Z,23.83
2022-09-25T01:28:31.314Z,20.30
2022-09-25T01:31:20.334Z,20.97
2022-09-25T01:34:14.770Z,19.90
2022-09-25T01:37:05.801Z,21.83
2022-09-25T01:39:58.629Z,22.10
2022-09-25T01:43:08.195Z,19.73
2022-09-25T01:46:01.362Z,24.07
2022-09-25T01:48:49.619Z,20.13
2022-09-25T01:51:41.672Z,21.63
2022-09-25T01:54:27.606Z,22.33
2022-09-25T01:57:32.416Z,23.10
2022-09-25T02:00:23.078Z,19.60
2022-09-25T02:03:11.515Z,22.13
2022-09-25T02:06:05.087Z,19.83
2022-09-25T02:08:54.099Z,22.87
2022-09-25T02:11:42.764Z,23.27
2022-09-25T02:14:33.270Z,23.40
2022-09-25T02:17:42.483Z,23.00
2022-09-25T02:20:34.471Z,23.40
2022-09-25T02:23:27.021Z,23.60
2022-09-25T02:26:17.348Z,23.10
2022-09-25T02:29:03.304Z,23.70
2022-09-25T02:31:51.237Z,27.27
2022-09-25T02:34:37.203Z,24.93
2022-09-25T02:37:23.052Z,25.83
2022-09-25T02:40:11.518Z,27.33
2022-09-25T02:43:02.340Z,32.20
2022-09-25T02:45:55.507Z,31.20
2022-09-25T02:48:50.554Z,32.17
2022-09-25T02:51:42.137Z,31.90
2022-09-25T02:54:32.123Z,29.87
2022-09-25T02:57:26.993Z,33.90
2022-09-25T03:00:13.303Z,33.60
2022-09-25T03:03:00.080Z,33.73
2022-09-25T03:05:47.306Z,35.20
2022-09-25T03:08:37.683Z,34.40
2022-09-25T03:11:26.745Z,30.83
2022-09-25T03:14:12.503Z,33.23
2022-09-25T03:17:00.505Z,36.80
2022-09-25T03:19:46.503Z,34.30
2022-09-25T03:22:34.556Z,34.70
2022-09-25T03:25:22.340Z,32.90
2022-09-25T03:28:10.632Z,35.10
2022-09-25T03:30:58.221Z,32.13
2022-09-25T03:33:46.889Z,31.90
2022-09-25T03:36:34.854Z,30.10
2022-09-25T03:39:21.108Z,33.83
2022-09-25T03:42:06.750Z,32.03
2022-09-25T03:44:52.799Z,36.50
2022-09-25T03:47:38.334Z,36.27
2022-09-25T03:50:24.179Z,33.33
2022-09-25T03:53:10.403Z,33.83
2022-09-25T03:55:56.432Z,32.27
2022-09-25T03:58:42.257Z,33.03
2022-09-25T04:01:28.843Z,31.50
2022-09-25T04:04:14.528Z,32.60
2022-09-25T04:07:00.606Z,27.87
2022-09-25T04:09:46.079Z,31.37
2022-09-25T04:12:34.345Z,27.37
2022-09-25T04:15:20.281Z,29.57
2022-09-25T04:18:06.402Z,28.87
2022-09-25T04:20:52.235Z,28.03
2022-09-25T04:23:38.760Z,31.90
2022-09-25T04:26:27.699Z,25.07
2022-09-25T04:29:15.207Z,29.57
2022-09-25T04:32:19.468Z,27.77
2022-09-25T04:35:05.833Z,29.40
2022-09-25T04:37:51.289Z,27.83
2022-09-25T04:40:37.534Z,23.23
2022-09-25T04:43:23.795Z,27.37
2022-09-25T04:46:12.439Z,25.73
2022-09-25T04:48:59.857Z,25.50
2022-09-25T04:51:45.788Z,24.40
2022-09-25T04:54:31.920Z,25.80
2022-09-25T04:57:38.904Z,25.53
2022-09-25T05:00:24.285Z,23.03
2022-09-25T05:03:10.228Z,27.33
2022-09-25T05:05:56.329Z,23.10
2022-09-25T05:08:43.072Z,20.20
2022-09-25T05:11:28.859Z,24.47
2022-09-25T05:14:14.702Z,20.60
2022-09-25T05:17:01.207Z,20.20
2022-09-25T05:19:47.006Z,23.93
2022-09-25T05:22:32.947Z,20.70
2022-09-25T05:25:19.943Z,20.90
2022-09-25T05:28:05.741Z,21.43
2022-09-25T05:30:51.689Z,24.43
2022-09-25T05:33:37.466Z,22.73
2022-09-25T05:36:23.353Z,22.60
2022-09-25T05:39:14.588Z,24.27
2022-09-25T05:42:02.051Z,21.23
2022-09-25T05:44:48.538Z,23.70
2022-09-25T05:47:34.016Z,24.10
2022-09-25T05:50:22.129Z,22.73
2022-09-25T05:53:07.900Z,22.63
2022-09-25T05:56:00.653Z,23.73
2022-09-25T05:58:47.203Z,21.73
2022-09-25T06:01:33.229Z,23.93
2022-09-25T06:04:18.707Z,27.27
2022-09-25T06:07:05.595Z,28.17
2022-09-25T06:09:51.441Z,28.90
2022-09-25T06:12:37.134Z,25.53
2022-09-25T06:15:23.987Z,23.30
2022-09-25T06:18:09.755Z,24.13
2022-09-25T06:21:00.383Z,23.20
2022-09-25T06:23:46.717Z,25.63
2022-09-25T06:26:34.036Z,27.87
2022-09-25T06:29:20.255Z,26.80
2022-09-25T06:32:06.141Z,28.77
2022-09-25T06:34:51.779Z,27.67
2022-09-25T06:37:37.453Z,29.63
2022-09-25T06:40:23.091Z,30.00
2022-09-25T06:43:13.207Z,28.00
2022-09-25T06:46:02.983Z,27.63
2022-09-25T06:48:55.680Z,32.90
2022-09-25T06:51:41.248Z,27.73
2022-09-25T06:54:30.351Z,30.77
2022-09-25T06:57:16.176Z,29.23
2022-09-25T07:00:02.113Z,29.43
2022-09-25T07:03:06.102Z,26.43
2022-09-25T07:05:51.866Z,31.03
2022-09-25T07:08:38.491Z,30.53
2022-09-25T07:11:28.185Z,30.60
2022-09-25T07:14:15.215Z,28.03
2022-09-25T07:17:00.775Z,31.10
2022-09-25T07:19:46.553Z,32.60
2022-09-25T07:22:32.454Z,31.17
2022-09-25T07:25:18.088Z,34.20
2022-09-25T07:28:03.759Z,35.87
2022-09-25T07:30:50.662Z,32.20
2022-09-25T07:33:36.573Z,33.37
2022-09-25T07:36:22.589Z,30.37
2022-09-25T07:39:08.504Z,34.33
2022-09-25T07:41:57.377Z,32.33
2022-09-25T07:44:48.190Z,35.47
2022-09-25T07:47:34.673Z,30.30
2022-09-25T07:50:20.506Z,31.60
2022-09-25T07:53:06.046Z,30.67
2022-09-25T07:55:51.865Z,33.37
2022-09-25T07:58:37.506Z,35.30
2022-09-25T08:01:23.481Z,33.47
2022-09-25T08:04:09.500Z,29.80
2022-09-25T08:06:55.396Z,28.37
2022-09-25T08:09:41.206Z,29.87
2022-09-25T08:12:26.708Z,33.40
2022-09-25T08:15:14.556Z,37.27
2022-09-25T08:18:00.176Z,33.63
2022-09-25T08:20:45.709Z,33.47
2022-09-25T08:23:31.891Z,32.67
2022-09-25T08:26:19.154Z,30.93
2022-09-25T08:29:05.636Z,30.00
2022-09-25T08:31:51.696Z,27.33
2022-09-25T08:34:41.790Z,35.83
2022-09-25T08:37:27.614Z,32.83
2022-09-25T08:40:17.991Z,31.30
2022-09-25T08:43:03.841Z,29.77
2022-09-25T08:46:09.220Z,30.30
2022-09-25T08:49:10.048Z,27.93
2022-09-25T08:51:59.771Z,32.80
2022-09-25T08:54:46.015Z,34.10
2022-09-25T08:57:40.716Z,29.07
2022-09-25T09:00:26.412Z,31.83
2022-09-25T09:03:12.699Z,25.90
2022-09-25T09:06:01.975Z,28.87
2022-09-25T09:08:51.165Z,33.57
2022-09-25T09:11:39.645Z,26.97
2022-09-25T09:14:27.011Z,28.93
2022-09-25T09:17:38.779Z,28.33
2022-09-25T09:20:28.522Z,28.83
2022-09-25T09:23:16.196Z,25.13
2022-09-25T09:26:16.863Z,25.83
2022-09-25T09:29:02.766Z,30.57
2022-09-25T09:32:01.070Z,30.07
2022-09-25T09:35:07.451Z,28.30
2022-09-25T09:37:56.584Z,29.30
2022-09-25T09:41:01.436Z,28.93
2022-09-25T09:44:07.634Z,28.90
2022-09-25T09:46:59.125Z,34.77
2022-09-25T09:49:52.114Z,27.30
2022-09-25T09:52:39.194Z,28.97
2022-09-25T09:55:36.065Z,28.10
2022-09-25T09:58:24.391Z,27.10
2022-09-25T10:01:36.657Z,30.03
2022-09-25T10:04:18.565Z,26.23
2022-09-25T10:07:10.373Z,29.57
2022-09-25T10:09:56.953Z,29.43
2022-09-25T10:12:52.783Z,27.13
2022-09-25T10:15:47.141Z,26.10
2022-09-25T10:18:45.996Z,32.67
2022-09-25T10:21:34.653Z,25.80
2022-09-25T10:24:41.036Z,25.17
2022-09-25T10:27:31.364Z,27.00
2022-09-25T10:30:19.151Z,24.20
2022-09-25T10:33:13.168Z,24.47
2022-09-25T10:35:59.309Z,23.93
2022-09-25T10:38:48.244Z,23.27
2022-09-25T10:41:41.787Z,24.17
2022-09-25T10:44:35.285Z,25.70
2022-09-25T10:47:39.379Z,25.23
2022-09-25T10:50:26.992Z,24.77
2022-09-25T10:53:28.864Z,21.33
2022-09-25T10:56:16.706Z,22.83
2022-09-25T10:59:03.831Z,25.40
2022-09-25T11:01:52.138Z,26.60
2022-09-25T11:04:38.846Z,16.60
2022-09-25T11:07:27.703Z,20.83
2022-09-25T11:10:23.105Z,20.80
2022-09-25T11:13:10.210Z,17.63
2022-09-25T11:16:02.634Z,15.60
2022-09-25T11:18:52.160Z,16.17
2022-09-25T11:21:49.242Z,16.57
2022-09-25T11:24:57.304Z,11.30
2022-09-25T11:27:50.646Z,10.73
2022-09-25T11:30:59.496Z,12.60
2022-09-25T11:33:51.145Z,12.30
2022-09-25T11:36:46.553Z,12.10
2022-09-25T11:40:09.081Z,11.13
2022-09-25T11:43:04.736Z,10.17
2022-09-25T11:46:02.472Z,12.43
2022-09-25T11:48:56.412Z,8.10
2022-09-25T11:51:48.456Z,12.30
2022-09-25T11:54:53.105Z,10.43
2022-09-25T11:57:44.911Z,12.27
2022-09-25T12:00:41.332Z,7.33
2022-09-25T12:03:46.485Z,10.70
2022-09-25T12:06:55.029Z,5.87
2022-09-25T12:09:46.567Z,6.87
2022-09-25T12:12:47.631Z,7.40
2022-09-25T12:15:45.854Z,13.03
2022-09-25T12:18:48.337Z,8.30
2022-09-25T12:21:36.962Z,8.60
2022-09-25T12:24:33.181Z,6.73
2022-09-25T12:27:18.955Z,8.03
2022-09-25T12:30:08.564Z,6.47
2022-09-25T12:32:59.363Z,5.93
2022-09-25T12:36:08.878Z,6.77
2022-09-25T12:39:01.431Z,6.57
2022-09-25T12:41:54.175Z,5.47
2022-09-25T12:44:44.021Z,5.43
2022-09-25T12:47:33.282Z,6.00
2022-09-25T12:50:29.938Z,5.60
2022-09-25T12:53:15.756Z,6.80
2022-09-25T12:56:13.300Z,5.90
2022-09-25T12:58:59.353Z,5.83
2022-09-25T13:01:59.679Z,6.23
2022-09-25T13:04:55.471Z,8.33
2022-09-25T13:07:53.820Z,10.60
2022-09-25T13:10:41.941Z,6.77
2022-09-25T13:13:33.944Z,8.37
2022-09-25T13:16:21.970Z,11.10
2022-09-25T13:19:12.255Z,7.10
2022-09-25T13:22:03.758Z,10.00
2022-09-25T13:24:52.313Z,8.23
2022-09-25T13:27:42.694Z,9.50
2022-09-25T13:30:29.341Z,10.10
2022-09-25T13:33:21.143Z,7.30
2022-09-25T13:36:08.961Z,9.40
2022-09-25T13:39:18.179Z,7.87
2022-09-25T13:42:13.229Z,8.80
2022-09-25T13:45:09.065Z,6.43
2022-09-25T13:47:56.390Z,9.60
2022-09-25T13:50:42.687Z,12.70
2022-09-25T13:53:35.024Z,9.80
2022-09-25T13:56:23.335Z,5.63
2022-09-25T13:59:17.760Z,9.60
2022-09-25T14:02:24.500Z,7.23
2022-09-25T14:05:14.019Z,9.10
2022-09-25T14:08:02.169Z,7.10
2022-09-25T14:10:51.074Z,9.37
2022-09-25T14:13:37.236Z,11.50
2022-09-25T14:16:29.542Z,6.50
2022-09-25T14:19:21.109Z,7.10
2022-09-25T14:22:07.059Z,6.40
2022-09-25T14:24:53.226Z,9.33
2022-09-25T14:27:39.008Z,5.37
2022-09-25T14:30:28.952Z,9.17
2022-09-25T14:33:18.218Z,8.73
2022-09-25T14:36:11.361Z,6.73
2022-09-25T14:39:07.413Z,6.63
2022-09-25T14:41:56.653Z,8.43
2022-09-25T14:45:04.526Z,5.77
2022-09-25T14:47:51.651Z,14.63
2022-09-25T14:50:39.105Z,7.70
2022-09-25T14:53:33.284Z,6.20
2022-09-25T14:56:19.973Z,7.13
2022-09-25T14:59:12.015Z,5.70
2022-09-25T15:01:59.457Z,5.37
2022-09-25T15:04:47.399Z,14.80
2022-09-25T15:07:32.957Z,4.73
2022-09-25T15:10:27.613Z,5.20
2022-09-25T15:13:13.360Z,5.50
2022-09-25T15:16:18.477Z,6.57
2022-09-25T15:19:09.669Z,7.73
2022-09-25T15:21:55.777Z,4.67
2022-09-25T15:24:46.134Z,3.93
2022-09-25T15:27:34.523Z,5.00
2022-09-25T15:30:20.525Z,7.17
2022-09-25T15:33:06.776Z,8.13
2022-09-25T15:35:55.473Z,5.00
2022-09-25T15:38:41.378Z,4.00
2022-09-25T15:41:27.844Z,7.57
2022-09-25T15:44:14.099Z,5.00
2022-09-25T15:47:02.152Z,4.77
2022-09-25T15:49:49.032Z,7.73
2022-09-25T15:52:34.571Z,5.50
2022-09-25T15:55:21.914Z,4.60
2022-09-25T15:58:08.812Z,5.10
2022-09-25T16:01:15.108Z,5.87
2022-09-25T16:04:20.155Z,4.63
2022-09-25T16:07:25.333Z,6.80
2022-09-25T16:10:11.953Z,5.40
2022-09-25T16:12:57.723Z,4.40
2022-09-25T16:15:50.242Z,5.57
2022-09-25T16:18:42.321Z,5.53
2022-09-25T16:21:31.595Z,4.53
2022-09-25T16:24:21.390Z,7.63
2022-09-25T16:27:08.507Z,6.27
2022-09-25T16:29:56.913Z,5.87
2022-09-25T16:32:47.437Z,4.30
2022-09-25T16:35:50.567Z,9.03
2022-09-25T16:38:39.005Z,5.40
2022-09-25T16:41:27.346Z,4.57
2022-09-25T16:44:29.143Z,6.87
2022-09-25T16:47:21.660Z,4.30
2022-09-25T16:50:07.476Z,6.30
2022-09-25T16:52:53.677Z,6.63
2022-09-25T16:55:53.153Z,6.73
2022-09-25T16:58:39.012Z,6.07
2022-09-25T17:01:28.121Z,4.73
2022-09-25T17:04:15.726Z,5.57
2022-09-25T17:07:01.867Z,6.03
2022-09-25T17:09:47.704Z,4.90
2022-09-25T17:12:33.974Z,8.40
2022-09-25T17:15:23.606Z,13.10
2022-09-25T17:18:17.221Z,8.93
2022-09-25T17:21:10.933Z,8.10
2022-09-25T17:23:56.507Z,12.43
2022-09-25T17:26:43.558Z,6.10
2022-09-25T17:29:29.427Z,10.33
2022-09-25T17:32:17.763Z,7.50
2022-09-25T17:35:03.504Z,8.00
2022-09-25T17:37:50.722Z,13.97
2022-09-25T17:40:36.545Z,8.83
2022-09-25T17:43:23.514Z,7.10
2022-09-25T17:46:09.924Z,7.33
2022-09-25T17:48:57.464Z,10.10
2022-09-25T17:51:45.275Z,13.20
2022-09-25T17:54:31.489Z,8.63
2022-09-25T17:57:17.023Z,6.23
2022-09-25T18:00:02.854Z,7.40
2022-09-25T18:02:50.657Z,9.07
2022-09-25T18:05:36.686Z,8.10
2022-09-25T18:08:22.705Z,7.30
2022-09-25T18:11:10.365Z,6.47
2022-09-25T18:14:00.847Z,5.40
2022-09-25T18:16:46.865Z,9.43
2022-09-25T18:19:51.566Z,10.43
2022-09-25T18:22:38.401Z,7.43
2022-09-25T18:25:24.158Z,8.80
2022-09-25T18:28:10.688Z,9.43
2022-09-25T18:30:57.872Z,6.40
2022-09-25T18:33:47.374Z,9.17
2022-09-25T18:36:33.284Z,8.90
2022-09-25T18:39:20.622Z,10.93
2022-09-25T18:42:06.528Z,9.07
2022-09-25T18:44:52.798Z,8.17
2022-09-25T18:47:40.145Z,7.03
2022-09-25T18:50:26.745Z,11.70
2022-09-25T18:53:12.568Z,10.67
2022-09-25T18:55:58.282Z,9.10
2022-09-25T18:58:43.904Z,6.40
2022-09-25T19:01:29.663Z,6.60
2022-09-25T19:04:16.848Z,6.60
2022-09-25T19:07:03.707Z,11.40
2022-09-25T19:09:49.382Z,6.70
2022-09-25T19:12:34.909Z,7.03
2022-09-25T19:15:21.015Z,8.53
2022-09-25T19:18:07.029Z,9.17
2022-09-25T19:20:54.417Z,7.60
2022-09-25T19:23:40.490Z,10.17
2022-09-25T19:26:27.092Z,11.13
2022-09-25T19:29:13.508Z,9.23
2022-09-25T19:31:59.405Z,5.83
2022-09-25T19:34:46.185Z,12.03
2022-09-25T19:37:32.839Z,6.67
2022-09-25T19:40:36.534Z,7.60
2022-09-25T19:43:23.941Z,7.23
2022-09-25T19:46:10.404Z,11.33
2022-09-25T19:48:57.665Z,6.60
2022-09-25T19:51:43.733Z,5.43
2022-09-25T19:54:31.327Z,9.50
2022-09-25T19:57:17.833Z,8.50
2022-09-25T20:00:04.549Z,5.73
2022-09-25T20:02:54.797Z,7.60
2022-09-25T20:05:41.668Z,7.53
2022-09-25T20:08:27.383Z,8.27
2022-09-25T20:11:18.450Z,7.23
2022-09-25T20:14:05.294Z,7.10
2022-09-25T20:16:50.820Z,11.10
2022-09-25T20:19:37.834Z,15.77
2022-09-25T20:22:23.730Z,8.20
2022-09-25T20:25:10.737Z,7.87
2022-09-25T20:27:57.478Z,12.10
2022-09-25T20:30:44.453Z,9.00
2022-09-25T20:33:34.571Z,8.30
2022-09-25T20:36:20.804Z,10.57
2022-09-25T20:39:06.608Z,9.33
2022-09-25T20:41:53.523Z,7.70
2022-09-25T20:44:39.554Z,7.93
2022-09-25T20:47:29.267Z,8.30
2022-09-25T20:50:15.522Z,8.90
2022-09-25T20:53:01.205Z,9.53
2022-09-25T20:55:47.535Z,8.87
2022-09-25T20:58:33.891Z,8.27
2022-09-25T21:01:21.542Z,8.60
2022-09-25T21:04:08.621Z,9.63
2022-09-25T21:06:54.332Z,11.07
2022-09-25T21:09:41.455Z,9.90
2022-09-25T21:12:28.370Z,7.47
2022-09-25T21:15:14.005Z,8.80
2022-09-25T21:18:00.578Z,13.27
2022-09-25T21:20:46.110Z,11.20
2022-09-25T21:23:31.700Z,11.63
2022-09-25T21:26:18.355Z,11.00
2022-09-25T21:29:05.280Z,10.93
2022-09-25T21:31:51.178Z,8.27
2022-09-25T21:34:37.112Z,10.00
2022-09-25T21:37:22.936Z,7.73
2022-09-25T21:40:09.063Z,8.70
2022-09-25T21:42:55.556Z,9.10
2022-09-25T21:45:41.718Z,8.23
2022-09-25T21:48:28.017Z,11.13
2022-09-25T21:51:14.104Z,9.73
2022-09-25T21:54:00.964Z,11.67
2022-09-25T21:56:48.965Z,10.50
2022-09-25T21:59:34.692Z,11.80
2022-09-25T22:02:20.302Z,8.63
2022-09-25T22:05:06.088Z,9.60
2022-09-25T22:07:52.017Z,12.20
2022-09-25T22:10:37.838Z,13.30
2022-09-25T22:13:23.972Z,11.13
2022-09-25T22:16:11.586Z,13.50
2022-09-25T22:18:59.142Z,10.20
2022-09-25T22:21:46.035Z,17.53
2022-09-25T22:24:32.306Z,15.67
2022-09-25T22:27:18.159Z,14.23
2022-09-25T22:30:04.169Z,14.03
2022-09-25T22:32:51.438Z,10.70
2022-09-25T22:35:37.228Z,14.70
2022-09-25T22:38:24.170Z,11.90
2022-09-25T22:41:11.999Z,14.13
2022-09-25T22:44:00.612Z,12.80
2022-09-25T22:46:47.379Z,22.60
2022-09-25T22:49:33.598Z,18.53
2022-09-25T22:52:19.542Z,12.07
2022-09-25T22:55:05.807Z,13.73
2022-09-25T22:57:51.386Z,10.70
2022-09-25T23:00:37.225Z,12.47
2022-09-25T23:03:24.818Z,11.83
2022-09-25T23:06:11.482Z,13.43
2022-09-25T23:08:58.728Z,11.53
2022-09-25T23:11:45.194Z,13.40
2022-09-25T23:14:32.093Z,15.90
2022-09-25T23:17:18.464Z,14.90
2022-09-25T23:20:05.157Z,18.03
2022-09-25T23:22:51.273Z,10.80
2022-09-25T23:25:37.075Z,11.03
2022-09-25T23:28:23.154Z,14.87
2022-09-25T23:31:10.346Z,14.20
2022-09-25T23:33:56.583Z,11.43
2022-09-25T23:36:42.504Z,12.03
2022-09-25T23:39:28.332Z,9.47
2022-09-25T23:42:14.885Z,11.80
2022-09-25T23:45:00.878Z,13.23
2022-09-25T23:47:48.494Z,10.27
2022-09-25T23:50:34.769Z,10.77
2022-09-25T23:53:20.903Z,14.63
2022-09-25T23:56:14.387Z,10.70
2022-09-25T23:59:03.594Z,16.40
